Main page
METAR-TAF:

METAR-TAF

Airports :

Cherbourg – Maupertus Airport

Cherbourg, France

latitude: 49-39N, longitude: 001-28W, elevation: 138 m

Current weather observation

The report was made 39 minutes ago, at 03:00 UTC
Wind 17 kt from the West
Temperature 17°C
Humidity 100%
Pressure 1012 hPa
Visibility: 6000 m
Overcast at a height of 500 ft
light drizzle

METAR: LFRC 230300Z AUTO 26017KT 6000 -DZ OVC005 17/17 Q1012

Time: 05:39 (03:39 UTC)

Forecast

The report was made 12 hours and 39 minutes ago, at 15:00 UTC
Forecast valid from 22 at 15 UTC to 22 at 24 UTC
Wind 15 kt from the South/Southeast with gusts up to 30 kt
Visibility 10 km or more
Broken clouds at a height of 1000 ft
Temporary
from 22 at 15 UTC to 22 at 24 UTC
Visibility: 1500 m
Broken clouds at a height of 200 ft
rain
Becoming
from 22 at 16 UTC to 22 at 18 UTC
Wind 20 kt from the Southwest with gusts up to 35 kt

TAF: LFRC 221500Z 2215/2224 15015G30KT 9999 BKN010 TEMPO 2215/2224 1500 RA BKN002 BECMG 2216/2218 23020G35KT

Weather observations and forecasts of more than 4000 airports (METAR and TAF reports).

The available stations are represented by yellow and red dots on the map.

Hover mouse over dot to see the name of the station.

Then click to see weather observations and forecasts.

To change the map : click on the green buttons with a black cross to zoom in, on the green button with a dash to zoom out, or on the green arrows for adjacent maps.


METAR-TAF: